Time;durP1;ratioP1;P1;durP2;ratioP2;P2;SDS_P1;SDS_P2;PMS_P1;PMS_P2;Temp;Humidity;BMP_temperature;BMP_pressure;BME280_temperature;BME280_humidity;BME280_pressure;Samples;Min_cycle;Max_cycle;Signal;HPM_P1;HPM_P2
2021/07/20 00:00:10;;;;;;;7.03;3.58;;;;;;;;;;5092629;28;20208;-74
2021/07/20 00:02:38;;;;;;;8.48;3.63;;;;;;;;;;5091595;28;20665;-75
2021/07/20 00:05:06;;;;;;;5.10;3.08;;;;;;;;;;5092256;28;20300;-75
2021/07/20 00:07:33;;;;;;;8.00;3.75;;;;;;;;;;5092462;28;20701;-75
2021/07/20 00:09:59;;;;;;;4.45;3.05;;;;;;;;;;5092708;28;20311;-75
2021/07/20 00:12:25;;;;;;;7.18;3.33;;;;;;;;;;5090622;28;20200;-74
2021/07/20 00:14:52;;;;;;;5.13;2.78;;;;;;;;;;5091780;28;20291;-73
2021/07/20 00:17:22;;;;;;;7.72;3.50;;;;;;;;;;5092697;28;20231;-74
2021/07/20 00:19:49;;;;;;;4.97;2.90;;;;;;;;;;5091254;28;20591;-74
2021/07/20 00:22:16;;;;;;;5.00;3.13;;;;;;;;;;5091214;28;20283;-75
2021/07/20 00:24:42;;;;;;;3.63;2.70;;;;;;;;;;5090643;28;20193;-73
2021/07/20 00:27:08;;;;;;;4.30;2.85;;;;;;;;;;5092427;28;20228;-74
2021/07/20 00:29:35;;;;;;;5.22;2.85;;;;;;;;;;5092533;28;20247;-74
2021/07/20 00:32:02;;;;;;;4.15;2.70;;;;;;;;;;5092201;28;20205;-74
2021/07/20 00:34:28;;;;;;;9.23;2.75;;;;;;;;;;5091664;28;20211;-75
2021/07/20 00:36:54;;;;;;;3.53;2.20;;;;;;;;;;5092283;28;20227;-73
2021/07/20 00:39:21;;;;;;;5.32;2.80;;;;;;;;;;5090871;28;20205;-75
2021/07/20 00:41:47;;;;;;;5.75;3.55;;;;;;;;;;5091848;28;20205;-74
2021/07/20 00:44:14;;;;;;;5.95;2.55;;;;;;;;;;5091411;28;20212;-74
2021/07/20 00:46:40;;;;;;;5.45;2.72;;;;;;;;;;5087119;28;20213;-74
2021/07/20 00:49:06;;;;;;;5.97;3.10;;;;;;;;;;5070630;28;20229;-75
2021/07/20 00:51:33;;;;;;;4.70;2.88;;;;;;;;;;5071554;28;20201;-73
2021/07/20 00:53:59;;;;;;;6.20;2.58;;;;;;;;;;5070837;28;20207;-74
2021/07/20 00:56:26;;;;;;;5.65;3.67;;;;;;;;;;5090481;28;20660;-75
2021/07/20 00:58:53;;;;;;;3.70;2.65;;;;;;;;;;5092143;28;20207;-73
2021/07/20 01:34:28;;;;;;;4.30;2.80;;;;;;;;;;5088061;28;20444;-73
2021/07/20 01:36:55;;;;;;;3.93;2.33;;;;;;;;;;5088675;28;20221;-73
2021/07/20 01:39:22;;;;;;;3.40;2.40;;;;;;;;;;5087407;28;20595;-73
2021/07/20 01:41:49;;;;;;;3.70;2.40;;;;;;;;;;5088335;28;20215;-73
2021/07/20 01:44:16;;;;;;;6.17;3.33;;;;;;;;;;5087983;28;20220;-73
2021/07/20 01:46:42;;;;;;;4.00;2.57;;;;;;;;;;5088483;28;20221;-73
2021/07/20 01:49:10;;;;;;;4.83;3.10;;;;;;;;;;5088725;28;20220;-73
2021/07/20 01:51:37;;;;;;;3.73;2.33;;;;;;;;;;5088410;28;20196;-73
2021/07/20 01:54:05;;;;;;;5.07;2.83;;;;;;;;;;5087543;28;20234;-73
2021/07/20 01:56:31;;;;;;;3.93;2.60;;;;;;;;;;5087866;28;20230;-73
2021/07/20 01:58:58;;;;;;;7.17;3.10;;;;;;;;;;5088264;28;20683;-73
2021/07/20 02:01:30;;;;;;;5.40;3.20;;;;;;;;;;5088333;28;20263;-73
2021/07/20 02:09:29;;;;;;;5.15;2.88;;;;;;;;;;5088194;28;20227;-72
2021/07/20 02:11:56;;;;;;;3.60;2.80;;;;;;;;;;5086938;28;20250;-72
2021/07/20 02:14:28;;;;;;;8.20;3.10;;;;;;;;;;5087256;28;20582;-72
2021/07/20 02:16:55;;;;;;;4.50;2.70;;;;;;;;;;5087915;28;20224;-72
2021/07/20 02:19:22;;;;;;;5.00;3.07;;;;;;;;;;5087769;28;20584;-72
2021/07/20 02:21:51;;;;;;;3.80;2.70;;;;;;;;;;5088042;28;20228;-72
2021/07/20 02:24:28;;;;;;;10.13;3.10;;;;;;;;;;5087430;28;20308;-72
2021/07/20 02:26:55;;;;;;;4.47;2.50;;;;;;;;;;5086711;28;20227;-72
2021/07/20 02:29:22;;;;;;;6.43;2.43;;;;;;;;;;5087945;28;20291;-72
2021/07/20 02:31:50;;;;;;;7.43;3.40;;;;;;;;;;5087675;28;20205;-71
2021/07/20 02:34:17;;;;;;;11.93;3.43;;;;;;;;;;5106422;28;20232;-71
2021/07/20 02:36:44;;;;;;;7.47;3.30;;;;;;;;;;5107994;28;20798;-72
2021/07/20 02:39:11;;;;;;;6.67;2.60;;;;;;;;;;5108266;28;20199;-74
2021/07/20 02:41:38;;;;;;;4.60;2.87;;;;;;;;;;5107835;28;20677;-73
2021/07/20 02:44:06;;;;;;;6.77;2.97;;;;;;;;;;5103531;28;20211;-71
2021/07/20 02:46:34;;;;;;;3.97;2.53;;;;;;;;;;5089951;28;20217;-72
2021/07/20 02:49:01;;;;;;;5.93;3.10;;;;;;;;;;5074035;28;20299;-71
2021/07/20 02:51:27;;;;;;;6.10;3.00;;;;;;;;;;5073932;28;20288;-73
2021/07/20 02:53:58;;;;;;;11.03;3.13;;;;;;;;;;5073127;28;20275;-72
2021/07/20 02:56:25;;;;;;;4.73;2.60;;;;;;;;;;5092332;28;20292;-73
2021/07/20 02:58:53;;;;;;;5.10;2.77;;;;;;;;;;5094145;28;20688;-75
2021/07/20 03:01:21;;;;;;;6.30;2.97;;;;;;;;;;5093761;28;20570;-75
2021/07/20 03:03:48;;;;;;;6.13;2.73;;;;;;;;;;5092293;28;20239;-74
2021/07/20 03:06:14;;;;;;;4.13;2.80;;;;;;;;;;5093697;28;20208;-74
2021/07/20 03:08:42;;;;;;;4.93;2.63;;;;;;;;;;5093683;28;20205;-75
2021/07/20 03:11:10;;;;;;;4.77;2.60;;;;;;;;;;5093462;28;20211;-75
2021/07/20 03:13:38;;;;;;;2.93;2.37;;;;;;;;;;5091822;28;20286;-75
2021/07/20 03:16:06;;;;;;;6.53;3.13;;;;;;;;;;5093217;28;20204;-75
2021/07/20 03:18:34;;;;;;;5.27;2.43;;;;;;;;;;5093464;28;20235;-75
2021/07/20 03:21:01;;;;;;;6.73;2.80;;;;;;;;;;5092268;28;20205;-75
2021/07/20 03:23:28;;;;;;;5.90;2.20;;;;;;;;;;5092564;28;20623;-74
2021/07/20 03:25:56;;;;;;;4.93;2.63;;;;;;;;;;5093390;28;20689;-74
2021/07/20 03:28:23;;;;;;;7.37;2.73;;;;;;;;;;5092102;28;20437;-75
2021/07/20 03:30:50;;;;;;;5.40;2.63;;;;;;;;;;5093413;28;20239;-74
2021/07/20 03:33:20;;;;;;;5.57;2.90;;;;;;;;;;5092813;28;20607;-75
2021/07/20 03:35:47;;;;;;;7.63;2.50;;;;;;;;;;5093117;28;20287;-76
2021/07/20 03:38:13;;;;;;;4.73;2.50;;;;;;;;;;5093248;28;20224;-76
2021/07/20 03:40:40;;;;;;;4.77;2.90;;;;;;;;;;5093165;28;20204;-74
2021/07/20 03:43:07;;;;;;;3.93;2.20;;;;;;;;;;5093086;28;20208;-74
2021/07/20 03:45:33;;;;;;;3.80;2.47;;;;;;;;;;5092892;28;20200;-75
2021/07/20 03:48:00;;;;;;;5.40;2.30;;;;;;;;;;5077048;28;20290;-74
2021/07/20 03:50:26;;;;;;;3.53;2.47;;;;;;;;;;5072752;28;20201;-75
2021/07/20 03:52:54;;;;;;;7.10;2.33;;;;;;;;;;5071569;28;20258;-75
2021/07/20 03:55:21;;;;;;;5.97;2.77;;;;;;;;;;5080958;28;20571;-75
2021/07/20 03:57:47;;;;;;;3.63;2.50;;;;;;;;;;5092317;28;20594;-75
2021/07/20 04:00:15;;;;;;;3.33;2.50;;;;;;;;;;5091569;28;20287;-75
2021/07/20 04:02:49;;;;;;;7.27;2.70;;;;;;;;;;5091349;28;20240;-75
2021/07/20 04:05:16;;;;;;;3.97;2.67;;;;;;;;;;5091105;28;20211;-75
2021/07/20 04:07:47;;;;;;;7.30;2.87;;;;;;;;;;5092256;28;20588;-75
2021/07/20 04:10:14;;;;;;;4.50;2.80;;;;;;;;;;5092665;28;20211;-75
2021/07/20 04:12:41;;;;;;;4.67;2.33;;;;;;;;;;5092710;28;20204;-75
2021/07/20 04:15:07;;;;;;;5.23;2.70;;;;;;;;;;5091977;28;20203;-73
2021/07/20 04:17:35;;;;;;;3.40;2.50;;;;;;;;;;5093082;28;20225;-75
2021/07/20 04:20:01;;;;;;;3.70;2.40;;;;;;;;;;5093058;28;20197;-72
2021/07/20 04:22:28;;;;;;;4.90;2.50;;;;;;;;;;5092431;28;20196;-73
2021/07/20 04:24:55;;;;;;;4.30;2.30;;;;;;;;;;5091707;28;20303;-75
2021/07/20 04:27:22;;;;;;;5.50;2.90;;;;;;;;;;5092408;28;20252;-75
2021/07/20 04:29:48;;;;;;;4.47;2.60;;;;;;;;;;5091273;28;20579;-75
2021/07/20 04:32:16;;;;;;;8.57;2.83;;;;;;;;;;5091933;28;20645;-75
2021/07/20 04:34:42;;;;;;;3.73;2.63;;;;;;;;;;5090335;28;20304;-73
2021/07/20 04:37:09;;;;;;;4.10;2.50;;;;;;;;;;5091925;28;20604;-72
2021/07/20 04:39:36;;;;;;;3.57;2.50;;;;;;;;;;5092553;28;20196;-73
2021/07/20 04:42:04;;;;;;;4.83;2.23;;;;;;;;;;5092292;28;20755;-74
2021/07/20 04:44:31;;;;;;;11.60;2.63;;;;;;;;;;5091480;28;20764;-72
2021/07/20 04:46:57;;;;;;;5.40;2.70;;;;;;;;;;5092032;28;20319;-72
2021/07/20 04:49:24;;;;;;;3.07;2.30;;;;;;;;;;5091599;28;20750;-73
2021/07/20 04:51:51;;;;;;;8.87;2.83;;;;;;;;;;5090996;28;20303;-72
2021/07/20 04:54:18;;;;;;;4.23;2.93;;;;;;;;;;5091388;28;20311;-72
2021/07/20 04:56:45;;;;;;;3.47;2.85;;;;;;;;;;5092578;28;20307;-72
2021/07/20 04:59:11;;;;;;;7.10;3.00;;;;;;;;;;5090843;28;20200;-71
2021/07/20 05:01:41;;;;;;;5.50;2.33;;;;;;;;;;5091825;28;20211;-73
2021/07/20 05:04:08;;;;;;;5.07;2.70;;;;;;;;;;5089578;28;20208;-73
2021/07/20 05:06:36;;;;;;;5.40;2.70;;;;;;;;;;5091534;28;20779;-73
2021/07/20 05:09:05;;;;;;;5.03;2.90;;;;;;;;;;5091466;28;20207;-72
2021/07/20 05:11:33;;;;;;;3.80;2.75;;;;;;;;;;5090341;28;20200;-71
2021/07/20 05:14:00;;;;;;;4.45;2.42;;;;;;;;;;5089573;28;20258;-71
2021/07/20 05:16:26;;;;;;;5.38;3.05;;;;;;;;;;5073353;28;20230;-74
2021/07/20 05:18:53;;;;;;;7.85;2.50;;;;;;;;;;5091459;28;20268;-73
2021/07/20 05:21:20;;;;;;;3.85;2.08;;;;;;;;;;5091578;28;20212;-72
2021/07/20 05:23:47;;;;;;;6.25;2.78;;;;;;;;;;5089920;28;20676;-74
2021/07/20 05:26:15;;;;;;;5.07;2.20;;;;;;;;;;5091159;28;20625;-74
2021/07/20 05:28:41;;;;;;;3.33;2.10;;;;;;;;;;5091550;28;20201;-73
2021/07/20 05:31:14;;;;;;;3.13;1.98;;;;;;;;;;5089961;28;20291;-72
2021/07/20 05:33:42;;;;;;;2.25;1.63;;;;;;;;;;5073158;28;20773;-73
2021/07/20 05:36:09;;;;;;;2.25;1.92;;;;;;;;;;5090166;28;20567;-72
2021/07/20 05:38:35;;;;;;;3.30;1.83;;;;;;;;;;5084005;28;20777;-70
2021/07/20 05:41:01;;;;;;;2.85;1.75;;;;;;;;;;5088423;28;20687;-70
2021/07/20 05:43:28;;;;;;;3.63;2.10;;;;;;;;;;5087995;28;20660;-69
2021/07/20 05:45:59;;;;;;;2.72;1.63;;;;;;;;;;5090142;28;20200;-68
2021/07/20 05:48:26;;;;;;;2.25;1.73;;;;;;;;;;5089131;28;20216;-69
2021/07/20 05:50:53;;;;;;;3.53;1.90;;;;;;;;;;5090503;28;20239;-73
2021/07/20 05:53:21;;;;;;;2.75;1.95;;;;;;;;;;5089168;28;20702;-71
2021/07/20 05:55:52;;;;;;;2.83;1.83;;;;;;;;;;5090005;28;20208;-71
2021/07/20 05:58:22;;;;;;;4.80;1.83;;;;;;;;;;5087833;28;20728;-70
2021/07/20 06:00:50;;;;;;;3.63;1.80;;;;;;;;;;5086121;28;20214;-73
2021/07/20 06:03:18;;;;;;;1.95;1.52;;;;;;;;;;5089561;28;20204;-72
2021/07/20 06:05:47;;;;;;;3.90;2.20;;;;;;;;;;5089839;28;20295;-72
2021/07/20 06:08:15;;;;;;;3.22;2.03;;;;;;;;;;5089575;28;20311;-75
2021/07/20 06:10:44;;;;;;;2.67;1.73;;;;;;;;;;5089970;28;20203;-69
2021/07/20 06:13:11;;;;;;;3.17;1.50;;;;;;;;;;5089876;28;20236;-73
2021/07/20 06:15:43;;;;;;;3.65;2.20;;;;;;;;;;5088453;28;20204;-73
2021/07/20 06:18:09;;;;;;;2.67;1.88;;;;;;;;;;5089861;28;20224;-73
2021/07/20 06:20:36;;;;;;;2.08;1.38;;;;;;;;;;5092635;28;20204;-72
2021/07/20 06:23:03;;;;;;;3.40;1.85;;;;;;;;;;5093098;28;20218;-70
2021/07/20 06:25:30;;;;;;;2.35;1.88;;;;;;;;;;5093479;28;20228;-70
2021/07/20 06:27:57;;;;;;;3.78;1.88;;;;;;;;;;5093321;28;20709;-71
2021/07/20 06:30:24;;;;;;;10.43;3.53;;;;;;;;;;5092379;28;20203;-70
2021/07/20 06:32:51;;;;;;;3.40;1.50;;;;;;;;;;5091801;28;20223;-72
2021/07/20 06:35:17;;;;;;;1.85;1.35;;;;;;;;;;5093414;28;20204;-71
2021/07/20 06:37:47;;;;;;;5.47;2.05;;;;;;;;;;5088418;28;20596;-71
2021/07/20 06:40:14;;;;;;;1.73;1.50;;;;;;;;;;5093187;28;20687;-71
2021/07/20 06:42:42;;;;;;;2.35;2.03;;;;;;;;;;5093545;28;20209;-72
2021/07/20 06:45:09;;;;;;;3.10;1.42;;;;;;;;;;5092753;28;20259;-70
2021/07/20 06:47:39;;;;;;;4.03;2.17;;;;;;;;;;5092985;28;20721;-72
2021/07/20 06:50:07;;;;;;;8.25;4.10;;;;;;;;;;5093123;28;20287;-70
2021/07/20 06:52:34;;;;;;;32.85;7.18;;;;;;;;;;5093218;28;20312;-72
2021/07/20 06:55:01;;;;;;;15.05;3.60;;;;;;;;;;5092396;28;20630;-71
2021/07/20 06:57:28;;;;;;;13.35;3.90;;;;;;;;;;5093005;28;20259;-72
2021/07/20 06:59:55;;;;;;;16.50;3.67;;;;;;;;;;5093098;28;20234;-70
2021/07/20 07:02:23;;;;;;;12.90;4.15;;;;;;;;;;5092983;28;20676;-71
2021/07/20 07:04:56;;;;;;;5.80;2.42;;;;;;;;;;5091986;28;20235;-70
2021/07/20 07:07:24;;;;;;;3.33;1.70;;;;;;;;;;5093025;28;20224;-71
2021/07/20 07:09:50;;;;;;;5.28;1.77;;;;;;;;;;5091965;28;20205;-71
2021/07/20 07:12:17;;;;;;;2.83;2.00;;;;;;;;;;5092340;28;20295;-71
2021/07/20 07:14:44;;;;;;;2.17;1.40;;;;;;;;;;5092276;28;20335;-72
2021/07/20 07:17:11;;;;;;;3.58;2.03;;;;;;;;;;5091860;28;20375;-71
2021/07/20 07:19:39;;;;;;;4.38;1.85;;;;;;;;;;5089887;28;20746;-67
2021/07/20 07:22:06;;;;;;;2.22;1.50;;;;;;;;;;5092252;28;20614;-71
2021/07/20 07:24:34;;;;;;;4.30;1.83;;;;;;;;;;5091591;28;20769;-72
2021/07/20 07:27:01;;;;;;;5.88;2.40;;;;;;;;;;5092744;28;20259;-72
2021/07/20 07:29:27;;;;;;;2.88;1.92;;;;;;;;;;5092669;28;20663;-72
2021/07/20 07:31:54;;;;;;;2.65;1.85;;;;;;;;;;5074363;28;20208;-74
2021/07/20 07:34:20;;;;;;;3.35;2.05;;;;;;;;;;5091654;28;20208;-72
2021/07/20 07:36:48;;;;;;;4.00;1.40;;;;;;;;;;5092369;28;20319;-72
2021/07/20 07:39:15;;;;;;;3.00;1.80;;;;;;;;;;5092256;28;20202;-72
2021/07/20 07:41:42;;;;;;;2.25;1.45;;;;;;;;;;5092116;28;20212;-73
2021/07/20 07:44:12;;;;;;;5.38;2.22;;;;;;;;;;5090004;28;20263;-72
2021/07/20 07:46:40;;;;;;;2.38;1.58;;;;;;;;;;5091776;28;20223;-72
2021/07/20 07:49:08;;;;;;;2.67;1.92;;;;;;;;;;5090898;28;20200;-71
2021/07/20 07:51:34;;;;;;;2.15;1.42;;;;;;;;;;5091280;28;20203;-75
2021/07/20 07:54:02;;;;;;;2.53;1.50;;;;;;;;;;5091310;28;20229;-72
2021/07/20 07:56:29;;;;;;;2.38;1.63;;;;;;;;;;5092034;28;20214;-72
2021/07/20 07:58:55;;;;;;;5.20;2.00;;;;;;;;;;5090419;28;20204;-72
2021/07/20 08:01:23;;;;;;;1.70;1.45;;;;;;;;;;5089312;28;20208;-74
2021/07/20 08:03:50;;;;;;;2.65;2.05;;;;;;;;;;5089675;28;20582;-71
2021/07/20 08:06:20;;;;;;;4.47;2.58;;;;;;;;;;5090457;28;20204;-73
2021/07/20 08:09:07;;;;;;;2.85;1.75;;;;;;;;;;5089046;28;20559;-72
2021/07/20 08:11:33;;;;;;;2.85;1.60;;;;;;;;;;5090109;28;20206;-72
2021/07/20 08:14:01;;;;;;;3.38;1.95;;;;;;;;;;5090261;28;20291;-72
2021/07/20 08:16:29;;;;;;;2.42;1.80;;;;;;;;;;5089098;28;20196;-72
2021/07/20 08:18:57;;;;;;;2.45;1.45;;;;;;;;;;5090658;28;20210;-71
2021/07/20 08:21:23;;;;;;;2.58;1.85;;;;;;;;;;5090122;28;20200;-72
2021/07/20 08:23:50;;;;;;;2.50;1.60;;;;;;;;;;5090666;28;20196;-72
2021/07/20 08:26:19;;;;;;;5.05;2.65;;;;;;;;;;5091530;28;20204;-72
2021/07/20 08:29:05;;;;;;;3.85;2.20;;;;;;;;;;5091191;28;20687;-71
2021/07/20 08:31:40;;;;;;;3.85;1.90;;;;;;;;;;5091177;28;20196;-71
2021/07/20 08:34:07;;;;;;;3.05;1.90;;;;;;;;;;5090428;28;20212;-71
2021/07/20 08:36:37;;;;;;;3.60;2.10;;;;;;;;;;5091442;28;20266;-72
2021/07/20 08:39:04;;;;;;;2.65;1.83;;;;;;;;;;5091523;28;20203;-71
2021/07/20 08:41:38;;;;;;;2.65;2.20;;;;;;;;;;5091425;28;20278;-71
2021/07/20 08:44:32;;;;;;;3.25;1.90;;;;;;;;;;5088756;28;20204;-71
2021/07/20 08:47:21;;;;;;;3.40;2.05;;;;;;;;;;5081077;28;20235;-71
2021/07/20 08:50:00;;;;;;;2.83;1.60;;;;;;;;;;5090704;28;20314;-71
2021/07/20 08:52:29;;;;;;;4.50;2.55;;;;;;;;;;5091398;28;20232;-71
2021/07/20 08:55:02;;;;;;;4.85;2.20;;;;;;;;;;5090338;28;20200;-72
2021/07/20 08:57:38;;;;;;;3.00;2.00;;;;;;;;;;5091009;28;20220;-71
2021/07/20 09:00:09;;;;;;;3.58;2.08;;;;;;;;;;5091319;28;20210;-72
2021/07/20 09:02:51;;;;;;;3.33;1.95;;;;;;;;;;5091701;28;20282;-72
2021/07/20 09:05:30;;;;;;;3.03;2.33;;;;;;;;;;5090516;28;20224;-71
2021/07/20 09:08:04;;;;;;;3.35;2.38;;;;;;;;;;5090942;28;20235;-71
2021/07/20 09:10:45;;;;;;;4.05;2.30;;;;;;;;;;5090606;28;20204;-71
2021/07/20 09:13:15;;;;;;;3.90;2.38;;;;;;;;;;5084279;28;20569;-70
2021/07/20 09:15:44;;;;;;;3.53;2.45;;;;;;;;;;5089350;28;20230;-71
2021/07/20 09:18:18;;;;;;;3.22;2.40;;;;;;;;;;5089411;28;20593;-69
2021/07/20 09:20:45;;;;;;;4.72;2.85;;;;;;;;;;5089834;28;20282;-70
2021/07/20 09:23:15;;;;;;;2.92;2.30;;;;;;;;;;5089190;28;20214;-69
2021/07/20 09:25:43;;;;;;;4.35;2.92;;;;;;;;;;5089175;28;20259;-71
2021/07/20 09:28:09;;;;;;;2.78;2.30;;;;;;;;;;5090042;28;20307;-70
2021/07/20 09:30:39;;;;;;;3.78;2.38;;;;;;;;;;5088020;28;20227;-70
2021/07/20 09:33:14;;;;;;;3.63;2.47;;;;;;;;;;5088729;28;20239;-71
2021/07/20 09:35:47;;;;;;;3.53;2.50;;;;;;;;;;5109227;28;20206;-72
2021/07/20 09:38:25;;;;;;;2.80;2.28;;;;;;;;;;5111611;28;20215;-71
2021/07/20 09:41:10;;;;;;;2.92;2.22;;;;;;;;;;5111293;28;20215;-72
2021/07/20 09:43:52;;;;;;;2.92;2.05;;;;;;;;;;5109301;28;20252;-71
2021/07/20 09:46:25;;;;;;;5.28;3.30;;;;;;;;;;5109701;28;20223;-71
2021/07/20 09:49:00;;;;;;;6.05;2.70;;;;;;;;;;5109366;28;20848;-71
2021/07/20 09:51:27;;;;;;;4.88;2.53;;;;;;;;;;5109070;28;20210;-70
2021/07/20 09:54:01;;;;;;;4.03;2.88;;;;;;;;;;5108888;28;20288;-69
2021/07/20 09:56:46;;;;;;;7.50;3.78;;;;;;;;;;5117865;27;20248;-70
2021/07/20 09:59:37;;;;;;;3.85;2.92;;;;;;;;;;5133880;27;20317;-71
2021/07/20 10:02:08;;;;;;;3.53;2.42;;;;;;;;;;5133345;27;20365;-71
2021/07/20 10:04:45;;;;;;;5.70;2.85;;;;;;;;;;5132818;27;20230;-70
2021/07/20 10:07:15;;;;;;;3.97;3.05;;;;;;;;;;5115653;27;20219;-69
2021/07/20 10:09:49;;;;;;;4.68;3.35;;;;;;;;;;5133849;27;20214;-69
2021/07/20 10:12:34;;;;;;;6.93;3.38;;;;;;;;;;5109122;27;20284;-71
2021/07/20 10:15:11;;;;;;;3.65;2.80;;;;;;;;;;5092058;28;20661;-71
2021/07/20 10:17:43;;;;;;;8.30;4.05;;;;;;;;;;5097128;28;20219;-72
2021/07/20 10:20:11;;;;;;;5.70;3.15;;;;;;;;;;5116384;27;20203;-73
2021/07/20 10:22:52;;;;;;;6.38;3.60;;;;;;;;;;5131759;27;20286;-73
2021/07/20 10:25:29;;;;;;;4.45;3.28;;;;;;;;;;5133496;27;20219;-71
2021/07/20 10:27:57;;;;;;;6.40;2.75;;;;;;;;;;5134032;27;20917;-71
2021/07/20 10:30:25;;;;;;;7.45;3.10;;;;;;;;;;5133943;27;20205;-72
2021/07/20 10:33:01;;;;;;;6.38;2.97;;;;;;;;;;5113314;28;20244;-71
2021/07/20 10:35:43;;;;;;;5.30;3.38;;;;;;;;;;5093381;28;20299;-72
2021/07/20 10:38:11;;;;;;;5.65;3.50;;;;;;;;;;5113408;28;20224;-73
2021/07/20 10:40:38;;;;;;;7.13;3.53;;;;;;;;;;5113505;28;20210;-73
2021/07/20 10:43:10;;;;;;;6.28;3.60;;;;;;;;;;5113225;28;20650;-71
2021/07/20 10:45:38;;;;;;;5.65;3.90;;;;;;;;;;5111782;28;20230;-73
2021/07/20 10:48:13;;;;;;;8.10;4.03;;;;;;;;;;5112560;28;20307;-72
2021/07/20 10:50:45;;;;;;;4.28;3.20;;;;;;;;;;5094631;28;20234;-72
2021/07/20 10:53:32;;;;;;;6.30;4.13;;;;;;;;;;5112564;28;20199;-69
2021/07/20 10:56:11;;;;;;;4.93;3.20;;;;;;;;;;5106171;28;20207;-72
2021/07/20 10:58:57;;;;;;;6.82;3.70;;;;;;;;;;5112950;28;20266;-72
2021/07/20 11:01:29;;;;;;;5.15;3.42;;;;;;;;;;5112336;28;20645;-72
2021/07/20 11:03:58;;;;;;;4.57;2.90;;;;;;;;;;5111707;28;20204;-73
2021/07/20 11:06:26;;;;;;;5.18;3.28;;;;;;;;;;5111481;28;20730;-71
2021/07/20 11:08:54;;;;;;;5.80;3.42;;;;;;;;;;5112255;28;20215;-73
2021/07/20 11:11:32;;;;;;;5.80;3.45;;;;;;;;;;5112368;28;20222;-73
2021/07/20 11:14:00;;;;;;;5.07;3.10;;;;;;;;;;5111409;28;20210;-73
2021/07/20 11:16:27;;;;;;;5.60;3.88;;;;;;;;;;5111923;28;20302;-72
2021/07/20 11:18:54;;;;;;;5.43;3.63;;;;;;;;;;5111966;28;20208;-73
2021/07/20 11:21:23;;;;;;;7.63;3.55;;;;;;;;;;5111386;28;20235;-73
2021/07/20 11:23:50;;;;;;;4.63;3.45;;;;;;;;;;5111494;28;20622;-72
2021/07/20 11:26:17;;;;;;;5.20;2.72;;;;;;;;;;5111700;28;20314;-73
2021/07/20 11:28:45;;;;;;;6.00;3.60;;;;;;;;;;5095028;28;20280;-72
2021/07/20 11:31:30;;;;;;;6.80;2.97;;;;;;;;;;5112149;28;20585;-73
2021/07/20 11:33:58;;;;;;;7.45;3.38;;;;;;;;;;5111243;28;20664;-73
2021/07/20 11:36:26;;;;;;;5.72;2.83;;;;;;;;;;5111543;28;20203;-72
2021/07/20 11:38:54;;;;;;;4.85;3.03;;;;;;;;;;5093119;28;20229;-73
2021/07/20 11:41:36;;;;;;;7.68;3.63;;;;;;;;;;5094326;28;20290;-73
2021/07/20 11:44:06;;;;;;;5.20;2.78;;;;;;;;;;5111082;28;20529;-72
2021/07/20 11:46:35;;;;;;;5.88;3.58;;;;;;;;;;5093990;28;20230;-73
2021/07/20 11:49:08;;;;;;;7.55;3.42;;;;;;;;;;5112234;28;20684;-74
2021/07/20 11:51:35;;;;;;;5.75;3.55;;;;;;;;;;5112155;28;20246;-74
2021/07/20 11:54:10;;;;;;;4.43;3.17;;;;;;;;;;5111266;28;20294;-74
2021/07/20 11:56:43;;;;;;;5.75;3.72;;;;;;;;;;5111625;28;20282;-74
2021/07/20 11:59:12;;;;;;;5.35;3.38;;;;;;;;;;5111931;28;20647;-74
2021/07/20 12:01:51;;;;;;;8.73;3.22;;;;;;;;;;5111886;28;20239;-73
2021/07/20 12:04:36;;;;;;;6.22;3.58;;;;;;;;;;5111224;28;20208;-72
2021/07/20 12:07:08;;;;;;;8.15;3.47;;;;;;;;;;5110991;28;20267;-75
2021/07/20 12:09:43;;;;;;;5.97;3.78;;;;;;;;;;5111740;28;20568;-72
2021/07/20 12:13:05;;;;;;;5.50;3.08;;;;;;;;;;5111326;28;20283;-72
2021/07/20 12:15:32;;;;;;;5.95;3.17;;;;;;;;;;5027556;28;20631;-71
2021/07/20 12:18:00;;;;;;;12.75;3.22;;;;;;;;;;5096406;28;20742;-74
2021/07/20 12:20:27;;;;;;;5.78;3.40;;;;;;;;;;5110978;28;20222;-72
2021/07/20 12:22:56;;;;;;;6.70;3.50;;;;;;;;;;5111841;28;20239;-72
2021/07/20 12:25:24;;;;;;;4.80;3.17;;;;;;;;;;5111928;28;20224;-72
2021/07/20 12:27:53;;;;;;;5.55;3.10;;;;;;;;;;5111100;28;20292;-73
2021/07/20 12:30:21;;;;;;;4.82;3.53;;;;;;;;;;5111804;28;20299;-73
2021/07/20 12:32:48;;;;;;;7.20;3.22;;;;;;;;;;5111388;28;20303;-73
2021/07/20 12:35:17;;;;;;;6.07;3.20;;;;;;;;;;5110858;28;20303;-74
2021/07/20 12:37:56;;;;;;;5.90;3.40;;;;;;;;;;5111140;28;20228;-74
2021/07/20 12:40:23;;;;;;;4.68;3.30;;;;;;;;;;5111097;28;20207;-73
2021/07/20 12:42:49;;;;;;;7.10;3.08;;;;;;;;;;5110957;28;20271;-73
2021/07/20 12:45:16;;;;;;;5.10;3.25;;;;;;;;;;5109721;28;20223;-73
2021/07/20 12:47:43;;;;;;;6.15;2.92;;;;;;;;;;5076598;28;20253;-73
2021/07/20 12:50:11;;;;;;;5.28;2.85;;;;;;;;;;5110819;28;20290;-73
2021/07/20 12:52:39;;;;;;;4.72;2.95;;;;;;;;;;5110358;28;20247;-73
2021/07/20 12:55:06;;;;;;;5.10;2.72;;;;;;;;;;5087928;28;20239;-73
2021/07/20 12:57:33;;;;;;;5.78;3.22;;;;;;;;;;5072024;28;20260;-73
2021/07/20 13:00:28;;;;;;;5.55;3.47;;;;;;;;;;5090372;28;20201;-72
2021/07/20 13:02:59;;;;;;;6.43;3.15;;;;;;;;;;5089722;28;20724;-72
2021/07/20 13:05:27;;;;;;;5.50;2.95;;;;;;;;;;5089617;28;20679;-75
2021/07/20 13:07:57;;;;;;;4.75;3.47;;;;;;;;;;5089395;28;20310;-73
2021/07/20 13:10:26;;;;;;;6.25;3.88;;;;;;;;;;5072021;28;20255;-73
2021/07/20 13:12:53;;;;;;;5.00;3.20;;;;;;;;;;5089954;28;21130;-73
2021/07/20 13:15:21;;;;;;;5.72;3.45;;;;;;;;;;5089031;28;20276;-73
2021/07/20 13:17:49;;;;;;;4.45;2.63;;;;;;;;;;5089768;28;20351;-73
2021/07/20 13:20:16;;;;;;;6.18;3.60;;;;;;;;;;5089953;28;20196;-73
2021/07/20 13:22:42;;;;;;;7.40;3.72;;;;;;;;;;5090405;28;20291;-73
2021/07/20 13:25:09;;;;;;;4.25;2.70;;;;;;;;;;5089349;28;20239;-73
2021/07/20 13:27:40;;;;;;;7.25;3.10;;;;;;;;;;5090016;28;20220;-74
2021/07/20 13:30:07;;;;;;;5.18;3.35;;;;;;;;;;5090492;28;20207;-73
2021/07/20 13:32:34;;;;;;;5.55;3.20;;;;;;;;;;5107971;28;20298;-72
2021/07/20 13:35:02;;;;;;;6.80;3.38;;;;;;;;;;5090964;28;20227;-73
2021/07/20 13:37:30;;;;;;;4.97;3.30;;;;;;;;;;5109862;28;20251;-74
2021/07/20 13:39:58;;;;;;;4.22;2.67;;;;;;;;;;5091625;28;20259;-73
2021/07/20 13:42:24;;;;;;;6.50;3.83;;;;;;;;;;5110209;28;20262;-73
2021/07/20 13:44:51;;;;;;;8.25;3.35;;;;;;;;;;5091284;28;20218;-73
2021/07/20 13:47:18;;;;;;;6.25;3.35;;;;;;;;;;5110378;28;20369;-74
2021/07/20 13:49:46;;;;;;;6.50;2.85;;;;;;;;;;5092726;28;20664;-73
2021/07/20 13:52:13;;;;;;;4.18;2.63;;;;;;;;;;5110116;28;20210;-73
2021/07/20 13:54:43;;;;;;;4.65;2.90;;;;;;;;;;5109523;28;20196;-73
2021/07/20 13:57:10;;;;;;;5.32;2.83;;;;;;;;;;5110177;28;20307;-72
2021/07/20 13:59:39;;;;;;;4.13;3.08;;;;;;;;;;5092134;28;20210;-73
2021/07/20 14:02:12;;;;;;;4.40;2.97;;;;;;;;;;5110401;28;20207;-74
2021/07/20 14:04:39;;;;;;;4.70;3.03;;;;;;;;;;5091128;28;20230;-74
2021/07/20 14:07:06;;;;;;;4.35;2.88;;;;;;;;;;5109928;28;20706;-74
2021/07/20 14:09:34;;;;;;;4.25;2.88;;;;;;;;;;5109557;28;20195;-73
2021/07/20 14:12:02;;;;;;;4.30;3.10;;;;;;;;;;5109231;28;20223;-72
2021/07/20 14:14:28;;;;;;;4.63;3.17;;;;;;;;;;5090694;28;20569;-72
2021/07/20 14:16:55;;;;;;;3.67;2.97;;;;;;;;;;5109110;28;20224;-74
2021/07/20 14:19:22;;;;;;;9.02;3.38;;;;;;;;;;5109025;28;20288;-73
2021/07/20 14:21:49;;;;;;;6.88;3.33;;;;;;;;;;5108999;28;20265;-74
2021/07/20 14:24:17;;;;;;;4.07;2.67;;;;;;;;;;5108166;28;20290;-73
2021/07/20 14:26:51;;;;;;;5.68;3.50;;;;;;;;;;5108582;28;20259;-73
2021/07/20 14:29:29;;;;;;;4.30;3.03;;;;;;;;;;5109317;28;20215;-73
2021/07/20 14:32:00;;;;;;;5.45;2.92;;;;;;;;;;5090790;28;20287;-75
2021/07/20 14:34:40;;;;;;;5.47;2.92;;;;;;;;;;5108044;28;20324;-72
2021/07/20 14:37:07;;;;;;;5.40;2.90;;;;;;;;;;5109754;28;20326;-75
2021/07/20 14:39:34;;;;;;;4.20;2.70;;;;;;;;;;5110070;28;20239;-74
2021/07/20 14:42:00;;;;;;;3.97;3.00;;;;;;;;;;5094642;28;20208;-73
2021/07/20 14:44:27;;;;;;;5.97;2.67;;;;;;;;;;5097031;28;20562;-74
2021/07/20 14:46:53;;;;;;;5.28;3.78;;;;;;;;;;5112942;28;20215;-74
2021/07/20 14:49:20;;;;;;;6.05;3.40;;;;;;;;;;5095423;28;20204;-73
2021/07/20 14:51:47;;;;;;;4.90;2.97;;;;;;;;;;5112291;28;20226;-73
2021/07/20 14:54:24;;;;;;;4.80;2.55;;;;;;;;;;5111808;28;20314;-75
2021/07/20 14:56:54;;;;;;;6.78;4.28;;;;;;;;;;5094439;28;20247;-73
2021/07/20 14:59:21;;;;;;;3.90;2.70;;;;;;;;;;5094398;28;20235;-75
2021/07/20 15:01:48;;;;;;;8.25;3.40;;;;;;;;;;5093393;28;20212;-75
2021/07/20 15:04:33;;;;;;;5.82;3.85;;;;;;;;;;5111772;28;20298;-74
2021/07/20 15:07:13;;;;;;;8.85;4.45;;;;;;;;;;5112126;28;20236;-72
2021/07/20 15:09:40;;;;;;;5.55;3.38;;;;;;;;;;5093943;28;20238;-73
2021/07/20 15:12:07;;;;;;;9.50;6.20;;;;;;;;;;5093366;28;20200;-74
2021/07/20 15:14:42;;;;;;;11.30;6.30;;;;;;;;;;5110163;28;20764;-73
2021/07/20 15:17:09;;;;;;;7.85;6.07;;;;;;;;;;5110814;28;20219;-73
2021/07/20 15:19:41;;;;;;;6.53;4.32;;;;;;;;;;5111669;28;20200;-74
2021/07/20 15:22:13;;;;;;;4.85;3.08;;;;;;;;;;5111382;28;20291;-74
2021/07/20 15:24:42;;;;;;;7.80;3.60;;;;;;;;;;5109929;28;20265;-74
2021/07/20 15:27:14;;;;;;;6.80;3.92;;;;;;;;;;5092486;28;20235;-74
2021/07/20 15:29:46;;;;;;;4.68;3.15;;;;;;;;;;5111978;28;20239;-73
2021/07/20 15:32:13;;;;;;;5.18;3.00;;;;;;;;;;5110651;28;20203;-74
2021/07/20 15:34:41;;;;;;;6.43;3.15;;;;;;;;;;5110258;28;20298;-74